Time;durP1;ratioP1;P1;durP2;ratioP2;P2;SDS_P1;SDS_P2;PMS_P1;PMS_P2;Temp;Humidity;BMP_temperature;BMP_pressure;BME280_temperature;BME280_humidity;BME280_pressure;Samples;Min_cycle;Max_cycle;Signal;HPM_P1;HPM_P2
2022/07/23 00:01:23;;;;;;;6.90;2.38;;;;;;;;;;4933789;29;20027;-54
2022/07/23 00:03:54;;;;;;;7.97;2.15;;;;;;;;;;4935405;29;20024;-54
2022/07/23 00:06:21;;;;;;;5.95;2.03;;;;;;;;;;4936006;29;20075;-55
2022/07/23 00:08:48;;;;;;;5.53;2.40;;;;;;;;;;4935426;29;20024;-54
2022/07/23 00:11:15;;;;;;;10.20;2.13;;;;;;;;;;4933874;29;20032;-55
2022/07/23 00:13:42;;;;;;;12.48;2.65;;;;;;;;;;4935164;29;20473;-56
2022/07/23 00:16:09;;;;;;;12.45;2.90;;;;;;;;;;4935304;29;20461;-50
2022/07/23 00:18:36;;;;;;;9.52;2.47;;;;;;;;;;4935401;29;20027;-54
2022/07/23 00:21:03;;;;;;;10.68;2.38;;;;;;;;;;4935855;29;20023;-55
2022/07/23 00:23:31;;;;;;;7.82;2.67;;;;;;;;;;4933257;29;20379;-55
2022/07/23 00:25:58;;;;;;;13.88;2.85;;;;;;;;;;4935160;29;20027;-53
2022/07/23 00:28:25;;;;;;;8.20;2.58;;;;;;;;;;4935260;29;20059;-54
2022/07/23 00:30:52;;;;;;;10.50;2.85;;;;;;;;;;4934827;29;20483;-53
2022/07/23 00:33:19;;;;;;;8.85;2.85;;;;;;;;;;4935324;29;20486;-54
2022/07/23 00:35:46;;;;;;;12.80;3.10;;;;;;;;;;4932376;29;20193;-51
2022/07/23 00:38:13;;;;;;;9.68;2.75;;;;;;;;;;4935693;29;20035;-52
2022/07/23 00:40:40;;;;;;;15.10;3.30;;;;;;;;;;4934852;29;20058;-56
2022/07/23 00:43:07;;;;;;;12.40;2.85;;;;;;;;;;4935251;29;20020;-51
2022/07/23 00:45:35;;;;;;;15.60;3.33;;;;;;;;;;4934710;29;20110;-54
2022/07/23 00:48:02;;;;;;;8.55;2.75;;;;;;;;;;4932548;29;20081;-55
2022/07/23 00:50:29;;;;;;;7.82;2.65;;;;;;;;;;4935007;29;20031;-53
2022/07/23 00:52:56;;;;;;;8.48;2.65;;;;;;;;;;4934996;29;20023;-54
2022/07/23 00:55:23;;;;;;;8.35;2.88;;;;;;;;;;4934493;29;20375;-56
2022/07/23 00:57:51;;;;;;;8.70;3.00;;;;;;;;;;4935005;29;20708;-52
2022/07/23 01:00:18;;;;;;;11.93;2.65;;;;;;;;;;4932319;29;20023;-54
2022/07/23 01:02:45;;;;;;;9.05;2.47;;;;;;;;;;4935003;29;20030;-55
2022/07/23 01:05:12;;;;;;;12.63;3.00;;;;;;;;;;4934649;29;20442;-51
2022/07/23 01:07:39;;;;;;;9.30;2.78;;;;;;;;;;4935066;29;20039;-56
2022/07/23 01:10:30;;;;;;;11.65;2.90;;;;;;;;;;4933950;29;20034;-55
2022/07/23 01:12:53;;;;;;;10.15;2.83;;;;;;;;;;4932838;29;20126;-56
2022/07/23 01:15:20;;;;;;;9.68;3.78;;;;;;;;;;4935167;29;20032;-56
2022/07/23 01:17:47;;;;;;;7.97;2.90;;;;;;;;;;4934692;29;20046;-52
2022/07/23 01:20:14;;;;;;;11.88;3.20;;;;;;;;;;4934656;29;20024;-55
2022/07/23 01:22:41;;;;;;;16.52;3.25;;;;;;;;;;4933131;29;20039;-53
2022/07/23 01:25:09;;;;;;;7.85;2.97;;;;;;;;;;4934132;29;20043;-54
2022/07/23 01:27:36;;;;;;;11.45;3.15;;;;;;;;;;4934448;29;20026;-50
2022/07/23 01:30:03;;;;;;;9.15;3.13;;;;;;;;;;4934703;29;20023;-55
2022/07/23 01:32:30;;;;;;;7.95;2.85;;;;;;;;;;4933850;29;20035;-54
2022/07/23 01:34:57;;;;;;;11.27;3.00;;;;;;;;;;4933138;29;20539;-54
2022/07/23 01:37:24;;;;;;;10.05;3.00;;;;;;;;;;4933761;29;20032;-55
2022/07/23 01:39:51;;;;;;;8.43;3.30;;;;;;;;;;4934311;29;20024;-55
2022/07/23 01:42:17;;;;;;;9.80;3.20;;;;;;;;;;4934314;29;20439;-52
2022/07/23 01:44:44;;;;;;;9.88;3.55;;;;;;;;;;4934748;29;20032;-53
2022/07/23 01:47:11;;;;;;;8.00;3.22;;;;;;;;;;4932624;29;20055;-53
2022/07/23 01:49:38;;;;;;;10.57;3.05;;;;;;;;;;4933935;29;20074;-52
2022/07/23 01:52:09;;;;;;;8.77;3.22;;;;;;;;;;4934546;29;20043;-50
2022/07/23 01:54:36;;;;;;;9.27;3.33;;;;;;;;;;4934160;29;20044;-55
2022/07/23 01:57:03;;;;;;;11.75;3.80;;;;;;;;;;4934027;29;20063;-52
2022/07/23 01:59:30;;;;;;;7.80;3.00;;;;;;;;;;4932235;29;20044;-56
2022/07/23 02:01:57;;;;;;;7.15;3.13;;;;;;;;;;4934666;29;20031;-56
2022/07/23 02:04:24;;;;;;;6.18;3.30;;;;;;;;;;4933997;29;20028;-53
2022/07/23 02:06:51;;;;;;;8.00;3.55;;;;;;;;;;4934097;29;20091;-56
2022/07/23 02:09:18;;;;;;;5.95;3.42;;;;;;;;;;4934742;29;20027;-55
2022/07/23 02:11:45;;;;;;;7.25;3.00;;;;;;;;;;4930955;29;20387;-54
2022/07/23 02:14:12;;;;;;;10.15;3.40;;;;;;;;;;4933927;29;20051;-53
2022/07/23 02:16:39;;;;;;;7.18;3.33;;;;;;;;;;4935361;29;20036;-54
2022/07/23 02:19:06;;;;;;;7.93;3.70;;;;;;;;;;4937210;29;20038;-54
2022/07/23 02:21:33;;;;;;;8.98;3.50;;;;;;;;;;4938068;29;20027;-54
2022/07/23 02:24:00;;;;;;;7.40;3.50;;;;;;;;;;4935588;29;20094;-56
2022/07/23 02:26:27;;;;;;;9.73;3.75;;;;;;;;;;4937312;29;20055;-55
2022/07/23 02:28:54;;;;;;;8.88;3.67;;;;;;;;;;4937997;29;20024;-53
2022/07/23 02:31:21;;;;;;;7.18;3.25;;;;;;;;;;4937014;29;20076;-55
2022/07/23 02:33:48;;;;;;;6.13;3.53;;;;;;;;;;4937188;29;20023;-55
2022/07/23 02:36:15;;;;;;;8.13;3.80;;;;;;;;;;4935194;29;20124;-54
2022/07/23 02:38:42;;;;;;;5.78;3.35;;;;;;;;;;4929311;29;20032;-51
2022/07/23 02:41:12;;;;;;;7.68;3.50;;;;;;;;;;4937250;29;20059;-55
2022/07/23 02:43:39;;;;;;;7.30;3.83;;;;;;;;;;4936450;29;20035;-51
2022/07/23 02:46:06;;;;;;;9.15;3.47;;;;;;;;;;4936625;29;20035;-52
2022/07/23 02:48:33;;;;;;;6.30;3.28;;;;;;;;;;4935876;29;20079;-51
2022/07/23 02:51:00;;;;;;;8.25;4.07;;;;;;;;;;4936604;29;20042;-50
2022/07/23 02:53:27;;;;;;;8.20;3.28;;;;;;;;;;4937462;29;20490;-53
2022/07/23 02:55:54;;;;;;;6.13;3.95;;;;;;;;;;4937112;29;20487;-53
2022/07/23 02:58:21;;;;;;;8.90;3.42;;;;;;;;;;4935423;29;20063;-51
2022/07/23 03:00:49;;;;;;;6.63;3.92;;;;;;;;;;4935830;29;20043;-53
2022/07/23 03:03:16;;;;;;;8.82;3.80;;;;;;;;;;4935295;29;20046;-55
2022/07/23 03:05:43;;;;;;;5.32;3.55;;;;;;;;;;4936716;29;20043;-52
2022/07/23 03:08:10;;;;;;;5.75;3.60;;;;;;;;;;4936478;29;20391;-54
2022/07/23 03:10:37;;;;;;;8.45;3.72;;;;;;;;;;4935518;29;20063;-52
2022/07/23 03:13:04;;;;;;;5.22;3.45;;;;;;;;;;4935811;29;20024;-56
2022/07/23 03:15:31;;;;;;;8.45;3.92;;;;;;;;;;4936652;29;20394;-56
2022/07/23 03:17:58;;;;;;;5.22;3.58;;;;;;;;;;4936581;29;20020;-53
2022/07/23 03:20:25;;;;;;;5.72;3.40;;;;;;;;;;4936384;29;20103;-55
2022/07/23 03:22:52;;;;;;;5.05;3.50;;;;;;;;;;4934869;29;20032;-55
2022/07/23 03:25:19;;;;;;;5.47;3.53;;;;;;;;;;4936087;29;20063;-54
2022/07/23 03:27:46;;;;;;;8.43;3.20;;;;;;;;;;4936026;29;20024;-54
2022/07/23 03:30:13;;;;;;;5.13;3.58;;;;;;;;;;4935922;29;20032;-52
2022/07/23 03:32:40;;;;;;;7.10;3.38;;;;;;;;;;4936135;29;20034;-49
2022/07/23 03:35:07;;;;;;;6.30;3.65;;;;;;;;;;4934094;29;20649;-52
2022/07/23 03:37:34;;;;;;;5.82;3.38;;;;;;;;;;4935958;29;20031;-56
2022/07/23 03:40:01;;;;;;;7.88;3.95;;;;;;;;;;4936043;29;20036;-54
2022/07/23 03:42:28;;;;;;;7.07;3.63;;;;;;;;;;4935927;29;20023;-53
2022/07/23 03:44:55;;;;;;;7.85;3.50;;;;;;;;;;4936483;29;20495;-52
2022/07/23 03:47:22;;;;;;;6.22;3.33;;;;;;;;;;4933267;29;20054;-53
2022/07/23 03:49:49;;;;;;;6.63;3.80;;;;;;;;;;4936268;29;20031;-53
2022/07/23 03:52:16;;;;;;;7.90;3.58;;;;;;;;;;4935657;29;20032;-51
2022/07/23 03:54:43;;;;;;;8.35;4.05;;;;;;;;;;4936257;29;20054;-54
2022/07/23 03:57:10;;;;;;;4.10;3.33;;;;;;;;;;4935862;29;20417;-55
2022/07/23 03:59:37;;;;;;;7.38;4.00;;;;;;;;;;4933287;29;20592;-56
2022/07/23 04:02:04;;;;;;;6.18;3.72;;;;;;;;;;4935835;29;20103;-53
2022/07/23 04:04:31;;;;;;;6.88;3.40;;;;;;;;;;4935745;29;20039;-56
2022/07/23 04:06:58;;;;;;;11.77;4.20;;;;;;;;;;4935449;29;20079;-55
2022/07/23 04:09:25;;;;;;;6.70;3.70;;;;;;;;;;4935464;29;20028;-53
2022/07/23 04:11:52;;;;;;;5.57;3.58;;;;;;;;;;4934174;29;20028;-54
2022/07/23 04:14:19;;;;;;;6.40;3.85;;;;;;;;;;4935367;29;20509;-56
2022/07/23 04:16:45;;;;;;;6.10;3.47;;;;;;;;;;4935934;29;20098;-53
2022/07/23 04:19:12;;;;;;;6.40;3.80;;;;;;;;;;4935132;29;20110;-56
2022/07/23 04:21:39;;;;;;;4.97;3.30;;;;;;;;;;4934667;29;20094;-56
2022/07/23 04:24:07;;;;;;;6.15;3.67;;;;;;;;;;4934098;29;20035;-51
2022/07/23 04:26:34;;;;;;;6.03;3.55;;;;;;;;;;4933902;29;20035;-56
2022/07/23 04:29:01;;;;;;;6.18;3.45;;;;;;;;;;4935552;29;20505;-53
2022/07/23 04:31:28;;;;;;;6.70;3.90;;;;;;;;;;4935310;29;20032;-53
2022/07/23 04:33:54;;;;;;;6.00;3.67;;;;;;;;;;4933543;29;20119;-56
2022/07/23 04:36:21;;;;;;;5.97;3.50;;;;;;;;;;4934213;29;20443;-54
2022/07/23 04:38:48;;;;;;;5.15;3.60;;;;;;;;;;4935110;29;20059;-54
2022/07/23 04:41:15;;;;;;;5.82;3.67;;;;;;;;;;4934659;29;20498;-55
2022/07/23 04:43:42;;;;;;;5.93;3.53;;;;;;;;;;4927241;29;20031;-51
2022/07/23 04:46:10;;;;;;;6.60;3.70;;;;;;;;;;4933681;29;20067;-56
2022/07/23 04:48:37;;;;;;;8.38;4.10;;;;;;;;;;4933720;29;20057;-54
2022/07/23 04:51:04;;;;;;;4.78;3.53;;;;;;;;;;4935507;29;20028;-56
2022/07/23 04:53:31;;;;;;;5.07;3.85;;;;;;;;;;4935157;29;20070;-56
2022/07/23 04:55:58;;;;;;;5.40;3.33;;;;;;;;;;4934644;29;20544;-53
2022/07/23 04:58:25;;;;;;;4.50;3.30;;;;;;;;;;4932930;29;20510;-53
2022/07/23 05:00:52;;;;;;;5.22;3.97;;;;;;;;;;4934180;29;20082;-52
2022/07/23 05:03:19;;;;;;;5.03;3.53;;;;;;;;;;4935351;29;20055;-53
2022/07/23 05:05:46;;;;;;;5.15;3.78;;;;;;;;;;4934678;29;20391;-55
2022/07/23 05:08:13;;;;;;;5.85;3.40;;;;;;;;;;4933457;29;20060;-54
2022/07/23 05:10:40;;;;;;;6.70;3.83;;;;;;;;;;4931909;29;20485;-56
2022/07/23 05:13:07;;;;;;;6.50;3.97;;;;;;;;;;4934464;29;20502;-55
2022/07/23 05:15:34;;;;;;;6.03;3.67;;;;;;;;;;4935164;29;20491;-52
2022/07/23 05:18:01;;;;;;;4.28;3.58;;;;;;;;;;4934059;29;20032;-55
2022/07/23 05:20:28;;;;;;;5.20;3.40;;;;;;;;;;4935046;29;20441;-54
2022/07/23 05:22:55;;;;;;;4.45;3.45;;;;;;;;;;4931841;29;20028;-55
2022/07/23 05:25:22;;;;;;;4.13;3.45;;;;;;;;;;4935115;29;20040;-52
2022/07/23 05:27:49;;;;;;;5.05;3.50;;;;;;;;;;4934599;29;20368;-54
2022/07/23 05:30:16;;;;;;;7.00;3.78;;;;;;;;;;4934076;29;20028;-56
2022/07/23 05:32:43;;;;;;;5.82;3.58;;;;;;;;;;4934131;29;20107;-55
2022/07/23 05:35:10;;;;;;;6.32;3.85;;;;;;;;;;4932690;29;20118;-52
2022/07/23 05:37:37;;;;;;;5.13;3.50;;;;;;;;;;4932808;29;20032;-53
2022/07/23 05:40:07;;;;;;;5.45;3.60;;;;;;;;;;4934863;29;20096;-49
2022/07/23 05:42:34;;;;;;;6.53;3.70;;;;;;;;;;4934250;29;20122;-55
2022/07/23 05:45:01;;;;;;;6.95;3.60;;;;;;;;;;4934149;29;20066;-55
2022/07/23 05:47:28;;;;;;;5.53;3.95;;;;;;;;;;4932860;29;20120;-53
2022/07/23 05:49:55;;;;;;;5.65;4.13;;;;;;;;;;4934149;29;20027;-55
2022/07/23 05:52:22;;;;;;;5.28;3.50;;;;;;;;;;4936312;29;20031;-57
2022/07/23 05:54:49;;;;;;;5.60;3.55;;;;;;;;;;4937771;29;20046;-56
2022/07/23 05:57:16;;;;;;;5.18;3.65;;;;;;;;;;4937074;29;20087;-53
2022/07/23 05:59:43;;;;;;;4.63;3.10;;;;;;;;;;4936432;29;20051;-53
2022/07/23 06:02:10;;;;;;;5.85;3.80;;;;;;;;;;4937597;29;20024;-56
2022/07/23 06:04:37;;;;;;;4.75;3.50;;;;;;;;;;4938341;29;20438;-52
2022/07/23 06:07:04;;;;;;;6.30;3.20;;;;;;;;;;4937975;29;20394;-49
2022/07/23 06:09:31;;;;;;;4.35;3.22;;;;;;;;;;4936164;29;20498;-56
2022/07/23 06:11:57;;;;;;;4.90;3.50;;;;;;;;;;4937273;29;20039;-57
2022/07/23 06:14:24;;;;;;;8.23;3.88;;;;;;;;;;4937151;29;20398;-57
2022/07/23 06:16:51;;;;;;;5.60;3.65;;;;;;;;;;4938132;29;20020;-56
2022/07/23 06:19:18;;;;;;;5.78;3.35;;;;;;;;;;4937707;29;20103;-56
2022/07/23 06:21:45;;;;;;;6.82;4.28;;;;;;;;;;4935897;29;20034;-55
2022/07/23 06:24:12;;;;;;;5.85;3.67;;;;;;;;;;4937501;29;20498;-55
2022/07/23 06:26:39;;;;;;;5.00;3.42;;;;;;;;;;4937136;29;20035;-53
2022/07/23 06:29:07;;;;;;;4.70;3.40;;;;;;;;;;4937460;29;20038;-56
2022/07/23 06:31:34;;;;;;;4.10;3.30;;;;;;;;;;4937274;29;20036;-53
2022/07/23 06:34:01;;;;;;;4.75;3.55;;;;;;;;;;4935466;29;20030;-55
2022/07/23 06:36:28;;;;;;;4.47;3.40;;;;;;;;;;4936763;29;20035;-55
2022/07/23 06:38:55;;;;;;;5.57;3.30;;;;;;;;;;4936934;29;20410;-56
2022/07/23 06:41:22;;;;;;;6.72;3.85;;;;;;;;;;4936369;29;20432;-51
2022/07/23 06:43:49;;;;;;;5.53;3.13;;;;;;;;;;4936793;29;20043;-56
2022/07/23 06:46:16;;;;;;;4.82;3.53;;;;;;;;;;4934846;29;20038;-54
2022/07/23 06:48:43;;;;;;;5.47;3.47;;;;;;;;;;4937381;29;20027;-53
2022/07/23 06:51:10;;;;;;;5.00;3.35;;;;;;;;;;4937336;29;20112;-55
2022/07/23 06:53:37;;;;;;;4.53;3.22;;;;;;;;;;4936807;29;20103;-54
2022/07/23 06:56:04;;;;;;;4.53;3.38;;;;;;;;;;4936495;29;20047;-54
2022/07/23 06:58:31;;;;;;;5.93;3.38;;;;;;;;;;4934719;29;20031;-54
2022/07/23 07:00:58;;;;;;;4.50;3.33;;;;;;;;;;4936793;29;20501;-55
2022/07/23 07:03:25;;;;;;;5.35;3.70;;;;;;;;;;4936312;29;20141;-56
2022/07/23 07:05:53;;;;;;;6.57;3.70;;;;;;;;;;4936817;29;20058;-56
2022/07/23 07:08:20;;;;;;;4.43;3.42;;;;;;;;;;4936555;29;20036;-55
2022/07/23 07:10:46;;;;;;;5.40;3.30;;;;;;;;;;4935053;29;20043;-52
2022/07/23 07:13:13;;;;;;;4.63;3.40;;;;;;;;;;4936989;29;20032;-51
2022/07/23 07:15:40;;;;;;;5.00;3.20;;;;;;;;;;4936224;29;20091;-56
2022/07/23 07:18:08;;;;;;;4.22;3.40;;;;;;;;;;4936975;29;20027;-54
2022/07/23 07:20:35;;;;;;;4.28;3.30;;;;;;;;;;4935720;29;20107;-54
2022/07/23 07:23:02;;;;;;;5.25;3.88;;;;;;;;;;4935066;29;20031;-53
2022/07/23 07:25:29;;;;;;;4.88;3.58;;;;;;;;;;4936782;29;20402;-53
2022/07/23 07:27:56;;;;;;;5.75;3.42;;;;;;;;;;4936169;29;20027;-54
2022/07/23 07:30:23;;;;;;;6.07;3.53;;;;;;;;;;4935937;29;20450;-54
2022/07/23 07:32:50;;;;;;;4.85;3.47;;;;;;;;;;4935460;29;20509;-55
2022/07/23 07:35:17;;;;;;;3.97;3.55;;;;;;;;;;4934907;29;20040;-53
2022/07/23 07:37:44;;;;;;;4.97;3.42;;;;;;;;;;4936237;29;20066;-53
2022/07/23 07:40:11;;;;;;;5.28;3.63;;;;;;;;;;4936070;29;20027;-54
2022/07/23 07:42:48;;;;;;;4.20;3.33;;;;;;;;;;4936716;29;20386;-52
2022/07/23 07:45:15;;;;;;;5.20;3.38;;;;;;;;;;4934676;29;20028;-54
2022/07/23 07:47:42;;;;;;;4.10;3.30;;;;;;;;;;4935211;29;20062;-53
2022/07/23 07:50:10;;;;;;;3.85;3.00;;;;;;;;;;4936093;29;20494;-52
2022/07/23 07:52:37;;;;;;;4.65;3.75;;;;;;;;;;4936073;29;20038;-55
2022/07/23 07:55:07;;;;;;;4.20;3.38;;;;;;;;;;4935796;29;20035;-51
2022/07/23 07:57:35;;;;;;;5.10;3.85;;;;;;;;;;4933791;29;20031;-54
2022/07/23 08:00:02;;;;;;;5.95;3.58;;;;;;;;;;4935578;29;20064;-54
2022/07/23 08:02:29;;;;;;;7.45;4.07;;;;;;;;;;4933869;29;20032;-55
2022/07/23 08:04:57;;;;;;;5.05;3.60;;;;;;;;;;4935606;29;20032;-52
2022/07/23 08:07:24;;;;;;;5.78;3.83;;;;;;;;;;4935855;29;20122;-56
2022/07/23 08:09:51;;;;;;;5.07;3.60;;;;;;;;;;4933326;29;20047;-54
2022/07/23 08:12:18;;;;;;;5.32;3.30;;;;;;;;;;4936144;29;20024;-51
2022/07/23 08:14:45;;;;;;;5.45;3.28;;;;;;;;;;4934559;29;20031;-56
2022/07/23 08:17:12;;;;;;;5.03;3.50;;;;;;;;;;4935441;29;20086;-54
2022/07/23 08:19:39;;;;;;;8.00;3.70;;;;;;;;;;4934030;29;20024;-54
2022/07/23 08:22:06;;;;;;;4.93;3.40;;;;;;;;;;4933710;29;20039;-56
2022/07/23 08:24:33;;;;;;;4.72;3.53;;;;;;;;;;4934953;29;20118;-55
2022/07/23 08:27:00;;;;;;;5.63;3.75;;;;;;;;;;4935257;29;20031;-55
2022/07/23 08:29:27;;;;;;;5.22;3.50;;;;;;;;;;4935334;29;20418;-54
2022/07/23 08:31:54;;;;;;;6.43;3.70;;;;;;;;;;4935168;29;20509;-54
2022/07/23 08:34:20;;;;;;;3.97;3.38;;;;;;;;;;4932958;29;20043;-52
2022/07/23 08:36:47;;;;;;;4.70;3.58;;;;;;;;;;4933924;29;20035;-53
2022/07/23 08:39:14;;;;;;;3.90;3.50;;;;;;;;;;4935180;29;20040;-55
2022/07/23 08:41:42;;;;;;;4.93;3.50;;;;;;;;;;4935451;29;20103;-55
2022/07/23 08:44:09;;;;;;;5.15;3.55;;;;;;;;;;4934276;29;20054;-51
2022/07/23 08:46:37;;;;;;;4.07;3.40;;;;;;;;;;4931806;29;20462;-55
2022/07/23 08:49:04;;;;;;;3.65;3.15;;;;;;;;;;4934723;29;20087;-52
2022/07/23 08:51:31;;;;;;;5.40;3.10;;;;;;;;;;4935287;29;20034;-56
2022/07/23 08:53:58;;;;;;;5.28;3.72;;;;;;;;;;4934532;29;20553;-50
2022/07/23 08:56:25;;;;;;;4.95;3.33;;;;;;;;;;4933663;29;20094;-53
2022/07/23 08:58:54;;;;;;;4.95;3.50;;;;;;;;;;4933558;29;20028;-53
2022/07/23 09:01:21;;;;;;;5.93;3.00;;;;;;;;;;4934594;29;20513;-53
2022/07/23 09:03:48;;;;;;;6.47;3.30;;;;;;;;;;4935420;29;20034;-56
2022/07/23 09:06:15;;;;;;;4.85;3.88;;;;;;;;;;4934495;29;20472;-55
2022/07/23 09:08:43;;;;;;;4.95;3.58;;;;;;;;;;4934128;29;20023;-56
2022/07/23 09:11:16;;;;;;;4.50;3.42;;;;;;;;;;4933149;29;20028;-48
2022/07/23 09:13:53;;;;;;;4.88;3.55;;;;;;;;;;4926894;29;20028;-53
2022/07/23 09:16:24;;;;;;;4.55;3.20;;;;;;;;;;4934819;29;20498;-57
2022/07/23 09:18:54;;;;;;;5.40;3.35;;;;;;;;;;4934603;29;20027;-54
2022/07/23 09:21:22;;;;;;;4.28;3.20;;;;;;;;;;4933268;29;20032;-55
2022/07/23 09:23:51;;;;;;;4.65;3.13;;;;;;;;;;4933809;29;20045;-52
2022/07/23 09:26:31;;;;;;;5.00;3.38;;;;;;;;;;4936467;29;20032;-57
2022/07/23 09:29:05;;;;;;;4.22;3.17;;;;;;;;;;4938530;29;20039;-53
2022/07/23 09:31:51;;;;;;;4.32;3.00;;;;;;;;;;4939036;29;20071;-53
2022/07/23 09:34:19;;;;;;;5.32;3.25;;;;;;;;;;4935901;29;20107;-51
2022/07/23 09:36:47;;;;;;;3.65;3.13;;;;;;;;;;4938150;29;20060;-54
2022/07/23 09:39:14;;;;;;;3.50;3.05;;;;;;;;;;4938135;29;20486;-54
2022/07/23 09:41:50;;;;;;;3.08;2.78;;;;;;;;;;4938899;29;20135;-53
2022/07/23 09:44:19;;;;;;;4.72;3.33;;;;;;;;;;4937383;29;20028;-54
2022/07/23 09:46:47;;;;;;;3.90;3.33;;;;;;;;;;4936839;29;20134;-53
2022/07/23 09:49:16;;;;;;;5.43;3.33;;;;;;;;;;4938014;29;20071;-53
2022/07/23 09:51:46;;;;;;;4.47;3.40;;;;;;;;;;4938581;29;20090;-56
2022/07/23 09:54:26;;;;;;;4.35;2.83;;;;;;;;;;4937969;29;20067;-53
2022/07/23 09:56:57;;;;;;;3.97;2.95;;;;;;;;;;4936663;29;20036;-54
2022/07/23 09:59:26;;;;;;;4.75;2.90;;;;;;;;;;4937284;29;20028;-55
2022/07/23 10:01:55;;;;;;;4.40;3.17;;;;;;;;;;4938470;29;20028;-53
2022/07/23 10:04:23;;;;;;;3.13;2.78;;;;;;;;;;4937404;29;20046;-55
2022/07/23 10:06:52;;;;;;;6.90;3.40;;;;;;;;;;4937721;29;20028;-53
2022/07/23 10:09:23;;;;;;;4.13;3.28;;;;;;;;;;4936213;29;20028;-53
2022/07/23 10:11:51;;;;;;;7.03;3.53;;;;;;;;;;4937124;29;20024;-51
2022/07/23 10:14:19;;;;;;;6.20;3.25;;;;;;;;;;4938245;29;20028;-54
2022/07/23 10:16:46;;;;;;;5.28;3.33;;;;;;;;;;4937337;29;20490;-54
2022/07/23 10:19:13;;;;;;;4.05;3.33;;;;;;;;;;4937963;29;20024;-54
2022/07/23 10:22:12;;;;;;;3.95;2.97;;;;;;;;;;4935905;29;20035;-55
2022/07/23 10:24:45;;;;;;;4.00;3.05;;;;;;;;;;4905767;29;20075;-51
2022/07/23 10:27:27;;;;;;;4.78;3.33;;;;;;;;;;4937795;29;20040;-54
2022/07/23 10:30:07;;;;;;;5.40;3.63;;;;;;;;;;4936946;29;20107;-55
2022/07/23 10:32:52;;;;;;;5.50;3.28;;;;;;;;;;4936011;29;20571;-56
2022/07/23 10:35:18;;;;;;;4.55;3.55;;;;;;;;;;4936970;29;20036;-50
2022/07/23 10:37:50;;;;;;;4.45;3.05;;;;;;;;;;4937083;29;20035;-56
2022/07/23 10:40:21;;;;;;;4.10;3.22;;;;;;;;;;4937519;29;20530;-54
2022/07/23 10:42:50;;;;;;;4.30;3.20;;;;;;;;;;4936882;29;20035;-55
2022/07/23 10:45:27;;;;;;;3.78;3.22;;;;;;;;;;4935614;29;20055;-52
2022/07/23 10:47:54;;;;;;;4.07;3.20;;;;;;;;;;4937067;29;20052;-52
2022/07/23 10:50:23;;;;;;;4.13;3.05;;;;;;;;;;4937399;29;20066;-53
2022/07/23 10:53:09;;;;;;;4.45;3.17;;;;;;;;;;4936647;29;20079;-52
2022/07/23 10:55:35;;;;;;;4.45;3.45;;;;;;;;;;4936580;29;20514;-53
2022/07/23 10:58:04;;;;;;;4.05;3.08;;;;;;;;;;4935217;29;20020;-53
2022/07/23 11:00:35;;;;;;;5.32;3.10;;;;;;;;;;4937400;29;20023;-52
2022/07/23 11:03:06;;;;;;;4.30;3.13;;;;;;;;;;4937082;29;20042;-55
2022/07/23 11:05:43;;;;;;;3.40;3.10;;;;;;;;;;4936519;29;20047;-53
2022/07/23 11:08:11;;;;;;;3.22;2.80;;;;;;;;;;4936070;29;20098;-56
2022/07/23 11:10:40;;;;;;;4.00;3.28;;;;;;;;;;4935561;29;20542;-54
2022/07/23 11:13:25;;;;;;;5.53;3.22;;;;;;;;;;4937218;29;20497;-56
2022/07/23 11:16:08;;;;;;;4.22;3.10;;;;;;;;;;4936614;29;20099;-55
2022/07/23 11:18:41;;;;;;;5.20;3.25;;;;;;;;;;4937039;29;20035;-55
2022/07/23 11:21:23;;;;;;;3.42;3.00;;;;;;;;;;4934472;29;20039;-55
2022/07/23 11:24:08;;;;;;;6.07;3.55;;;;;;;;;;4936972;29;20032;-52
2022/07/23 11:26:41;;;;;;;6.68;3.97;;;;;;;;;;4936771;29;20024;-56
2022/07/23 11:29:07;;;;;;;;;;;;;;;;;;4936894;29;20565;-54
2022/07/23 11:31:35;;;;;;;3.83;3.13;;;;;;;;;;4936611;29;19917;-56
2022/07/23 11:34:20;;;;;;;5.68;2.88;;;;;;;;;;4934644;29;20348;-54
2022/07/23 11:36:50;;;;;;;3.63;3.10;;;;;;;;;;4936732;29;20031;-53
2022/07/23 11:39:17;;;;;;;5.53;3.13;;;;;;;;;;4936173;29;20031;-56
2022/07/23 11:41:45;;;;;;;4.93;2.95;;;;;;;;;;4936556;29;20386;-54
2022/07/23 11:44:30;;;;;;;4.07;3.20;;;;;;;;;;4935475;29;20436;-51
2022/07/23 11:47:01;;;;;;;4.43;3.35;;;;;;;;;;4934745;29;20093;-55
2022/07/23 11:49:28;;;;;;;4.35;3.45;;;;;;;;;;4935549;29;20111;-56
2022/07/23 11:52:04;;;;;;;5.25;3.42;;;;;;;;;;4935705;29;20128;-54
2022/07/23 11:54:32;;;;;;;6.00;3.50;;;;;;;;;;4936314;29;20020;-54
2022/07/23 11:56:59;;;;;;;3.80;3.25;;;;;;;;;;4933785;29;20386;-54
2022/07/23 11:59:36;;;;;;;4.22;3.40;;;;;;;;;;4935038;29;20494;-55
2022/07/23 12:02:04;;;;;;;3.20;2.85;;;;;;;;;;4936188;29;20124;-55
2022/07/23 12:04:50;;;;;;;5.15;3.13;;;;;;;;;;4935987;29;20391;-56
2022/07/23 12:07:44;;;;;;;5.18;3.45;;;;;;;;;;4935670;29;20031;-50
2022/07/23 12:10:11;;;;;;;3.88;3.25;;;;;;;;;;4941311;29;20051;-51
2022/07/23 12:13:07;;;;;;;3.20;2.90;;;;;;;;;;5089669;27;20440;-53
2022/07/23 12:15:37;;;;;;;4.45;3.17;;;;;;;;;;5088722;28;20036;-54
2022/07/23 12:18:05;;;;;;;4.28;3.10;;;;;;;;;;5089319;28;20386;-55
2022/07/23 12:20:34;;;;;;;3.45;2.88;;;;;;;;;;5088108;28;20017;-52
2022/07/23 12:23:02;;;;;;;4.18;3.05;;;;;;;;;;5087851;28;20607;-52
2022/07/23 12:25:30;;;;;;;4.72;3.53;;;;;;;;;;5089363;28;20024;-53
2022/07/23 12:28:01;;;;;;;4.20;3.00;;;;;;;;;;5088490;28;20486;-54
2022/07/23 12:30:48;;;;;;;5.22;3.20;;;;;;;;;;5089075;28;20035;-51
2022/07/23 12:33:17;;;;;;;3.67;3.20;;;;;;;;;;5086482;28;20020;-54
2022/07/23 12:35:45;;;;;;;3.75;3.20;;;;;;;;;;5088725;28;20024;-51
2022/07/23 12:38:13;;;;;;;4.15;3.17;;;;;;;;;;5089074;28;20020;-51
2022/07/23 12:40:48;;;;;;;5.65;2.97;;;;;;;;;;5088867;28;20031;-53
2022/07/23 12:43:31;;;;;;;3.83;3.10;;;;;;;;;;5088229;28;20024;-53
2022/07/23 12:46:15;;;;;;;4.45;2.97;;;;;;;;;;5085834;28;20927;-55
2022/07/23 12:48:54;;;;;;;4.43;3.00;;;;;;;;;;5088548;28;20097;-54
2022/07/23 12:51:25;;;;;;;5.97;3.45;;;;;;;;;;5088716;28;20440;-52
2022/07/23 12:53:54;;;;;;;4.85;3.35;;;;;;;;;;5087642;28;20094;-52
2022/07/23 12:56:27;;;;;;;5.68;3.22;;;;;;;;;;5087038;28;20086;-56
2022/07/23 12:58:57;;;;;;;3.70;3.25;;;;;;;;;;5087559;28;20501;-51
2022/07/23 13:01:24;;;;;;;4.68;3.13;;;;;;;;;;5088600;28;20450;-53
2022/07/23 13:03:59;;;;;;;3.95;3.35;;;;;;;;;;5086483;28;20024;-54
2022/07/23 13:06:26;;;;;;;7.05;3.60;;;;;;;;;;5087935;28;20056;-56
2022/07/23 13:08:53;;;;;;;4.00;3.15;;;;;;;;;;5085803;28;20024;-53
2022/07/23 13:11:20;;;;;;;7.70;3.15;;;;;;;;;;5087929;28;20087;-53
2022/07/23 13:13:47;;;;;;;5.43;3.38;;;;;;;;;;5086097;28;20115;-52
2022/07/23 13:16:14;;;;;;;5.47;3.08;;;;;;;;;;5088288;28;20104;-52
2022/07/23 13:18:41;;;;;;;4.50;3.20;;;;;;;;;;5087449;28;20115;-56
2022/07/23 13:21:08;;;;;;;3.75;3.35;;;;;;;;;;5085806;28;20032;-55
2022/07/23 13:23:35;;;;;;;5.03;3.33;;;;;;;;;;5077771;28;20071;-54
2022/07/23 13:26:02;;;;;;;4.45;3.20;;;;;;;;;;5073747;28;20028;-54
2022/07/23 13:28:29;;;;;;;4.50;3.55;;;;;;;;;;5074369;28;20105;-53
2022/07/23 13:30:56;;;;;;;4.85;3.65;;;;;;;;;;5074054;28;20033;-54
2022/07/23 13:33:24;;;;;;;5.53;3.28;;;;;;;;;;5072298;28;20029;-52
2022/07/23 13:35:52;;;;;;;4.80;3.05;;;;;;;;;;5073787;28;20028;-54
2022/07/23 13:38:19;;;;;;;5.45;3.40;;;;;;;;;;5074047;28;20025;-54
2022/07/23 13:40:48;;;;;;;5.72;3.38;;;;;;;;;;5073922;28;20093;-52
2022/07/23 13:43:16;;;;;;;6.25;3.50;;;;;;;;;;5074211;28;20021;-52
2022/07/23 13:45:44;;;;;;;5.32;3.67;;;;;;;;;;5071510;28;20056;-53
2022/07/23 13:48:11;;;;;;;4.68;3.47;;;;;;;;;;5073962;28;20071;-55
2022/07/23 13:50:39;;;;;;;4.57;3.38;;;;;;;;;;5072028;28;20194;-56
2022/07/23 13:53:07;;;;;;;5.00;3.60;;;;;;;;;;5073901;28;20078;-55
2022/07/23 13:55:34;;;;;;;4.53;3.25;;;;;;;;;;5073432;28;20097;-56
2022/07/23 13:58:02;;;;;;;6.63;3.50;;;;;;;;;;5072036;28;20032;-56
2022/07/23 14:00:30;;;;;;;7.95;3.45;;;;;;;;;;5073789;28;20031;-56
2022/07/23 14:02:57;;;;;;;4.60;3.60;;;;;;;;;;5073296;28;20032;-57
2022/07/23 14:05:24;;;;;;;8.95;3.80;;;;;;;;;;5074281;28;20055;-54
2022/07/23 14:07:51;;;;;;;8.55;3.75;;;;;;;;;;5072526;28;20056;-56
2022/07/23 14:10:19;;;;;;;8.00;3.55;;;;;;;;;;5072631;28;20085;-55
2022/07/23 14:12:47;;;;;;;5.22;3.40;;;;;;;;;;5074087;28;20517;-56
2022/07/23 14:15:14;;;;;;;4.60;3.40;;;;;;;;;;5073273;28;20490;-57
2022/07/23 14:17:42;;;;;;;4.35;3.22;;;;;;;;;;5073636;28;20394;-57
2022/07/23 14:20:09;;;;;;;4.80;3.90;;;;;;;;;;5072477;28;20020;-53
2022/07/23 14:22:36;;;;;;;3.13;2.70;;;;;;;;;;5071906;28;20040;-56
2022/07/23 14:25:04;;;;;;;3.85;3.20;;;;;;;;;;5073855;28;20028;-53
2022/07/23 14:27:31;;;;;;;4.25;3.25;;;;;;;;;;5073121;28;20024;-55
2022/07/23 14:29:59;;;;;;;7.82;3.70;;;;;;;;;;5073094;28;20464;-57
2022/07/23 14:32:26;;;;;;;4.68;3.50;;;;;;;;;;5071472;28;20033;-53
2022/07/23 14:34:53;;;;;;;4.72;3.33;;;;;;;;;;5071189;28;20067;-56
2022/07/23 14:37:20;;;;;;;7.75;3.92;;;;;;;;;;5073070;28;20048;-54
2022/07/23 14:39:47;;;;;;;4.57;3.35;;;;;;;;;;5073286;28;20021;-55
2022/07/23 14:42:14;;;;;;;5.15;3.60;;;;;;;;;;5072962;28;20098;-56
2022/07/23 14:44:42;;;;;;;5.97;3.97;;;;;;;;;;5071058;28;20047;-56
2022/07/23 14:47:09;;;;;;;6.22;3.53;;;;;;;;;;5072308;28;20060;-53
2022/07/23 14:49:36;;;;;;;5.78;3.67;;;;;;;;;;5073313;28;20035;-56
2022/07/23 14:52:04;;;;;;;5.75;3.83;;;;;;;;;;5072133;28;20029;-55